sensor_id;sensor_type;location;lat;lon;timestamp;temperature;humidity
19152;DHT22;9708;53.114;9.388;2023-03-21T00:02:13;8.40;99.90
19152;DHT22;9708;53.114;9.388;2023-03-21T00:04:41;8.40;99.90
19152;DHT22;9708;53.114;9.388;2023-03-21T00:07:07;8.40;99.90
19152;DHT22;9708;53.114;9.388;2023-03-21T00:09:34;8.40;99.90
19152;DHT22;9708;53.114;9.388;2023-03-21T00:12:01;8.50;99.90
19152;DHT22;9708;53.114;9.388;2023-03-21T00:14:33;8.50;99.90
19152;DHT22;9708;53.114;9.388;2023-03-21T00:16:59;8.50;99.90
19152;DHT22;9708;53.114;9.388;2023-03-21T00:19:27;8.40;99.90
19152;DHT22;9708;53.114;9.388;2023-03-21T00:21:54;8.40;99.90
19152;DHT22;9708;53.114;9.388;2023-03-21T00:24:22;8.40;99.90
19152;DHT22;9708;53.114;9.388;2023-03-21T00:26:49;8.40;99.90
19152;DHT22;9708;53.114;9.388;2023-03-21T00:29:16;8.50;99.90
19152;DHT22;9708;53.114;9.388;2023-03-21T00:31:43;8.50;99.90
19152;DHT22;9708;53.114;9.388;2023-03-21T00:34:10;8.50;99.90
19152;DHT22;9708;53.114;9.388;2023-03-21T00:36:38;8.50;99.90
19152;DHT22;9708;53.114;9.388;2023-03-21T00:39:05;8.50;99.90
19152;DHT22;9708;53.114;9.388;2023-03-21T00:41:32;8.50;99.90
19152;DHT22;9708;53.114;9.388;2023-03-21T00:43:59;8.50;99.90
19152;DHT22;9708;53.114;9.388;2023-03-21T00:46:26;8.50;99.90
19152;DHT22;9708;53.114;9.388;2023-03-21T00:48:52;8.50;99.90
19152;DHT22;9708;53.114;9.388;2023-03-21T00:51:21;8.50;99.90
19152;DHT22;9708;53.114;9.388;2023-03-21T00:53:53;8.50;99.90
19152;DHT22;9708;53.114;9.388;2023-03-21T00:56:20;8.50;99.90
19152;DHT22;9708;53.114;9.388;2023-03-21T00:58:46;8.50;99.90
19152;DHT22;9708;53.114;9.388;2023-03-21T01:01:13;8.50;99.90
19152;DHT22;9708;53.114;9.388;2023-03-21T01:03:40;8.50;99.90
19152;DHT22;9708;53.114;9.388;2023-03-21T01:06:16;8.50;99.90
19152;DHT22;9708;53.114;9.388;2023-03-21T01:08:48;8.50;99.90
19152;DHT22;9708;53.114;9.388;2023-03-21T01:11:19;8.50;99.90
19152;DHT22;9708;53.114;9.388;2023-03-21T01:13:47;8.50;99.90
19152;DHT22;9708;53.114;9.388;2023-03-21T01:16:13;8.60;99.90
19152;DHT22;9708;53.114;9.388;2023-03-21T01:18:40;8.60;99.90
19152;DHT22;9708;53.114;9.388;2023-03-21T01:21:09;8.50;99.90
19152;DHT22;9708;53.114;9.388;2023-03-21T01:23:37;8.50;99.90
19152;DHT22;9708;53.114;9.388;2023-03-21T01:26:04;8.60;99.90
19152;DHT22;9708;53.114;9.388;2023-03-21T01:28:33;8.50;99.90
19152;DHT22;9708;53.114;9.388;2023-03-21T01:31:01;8.50;99.90
19152;DHT22;9708;53.114;9.388;2023-03-21T01:33:29;8.60;99.90
19152;DHT22;9708;53.114;9.388;2023-03-21T01:35:56;8.60;99.90
19152;DHT22;9708;53.114;9.388;2023-03-21T01:38:23;8.60;99.90
19152;DHT22;9708;53.114;9.388;2023-03-21T01:40:51;8.60;99.90
19152;DHT22;9708;53.114;9.388;2023-03-21T01:43:24;8.60;99.90
19152;DHT22;9708;53.114;9.388;2023-03-21T01:49:01;8.70;99.90
19152;DHT22;9708;53.114;9.388;2023-03-21T01:51:29;8.70;99.90
19152;DHT22;9708;53.114;9.388;2023-03-21T01:53:58;8.70;99.90
19152;DHT22;9708;53.114;9.388;2023-03-21T01:56:30;8.70;99.90
19152;DHT22;9708;53.114;9.388;2023-03-21T01:59:01;8.70;99.90
19152;DHT22;9708;53.114;9.388;2023-03-21T02:01:31;8.70;99.90
19152;DHT22;9708;53.114;9.388;2023-03-21T02:04:00;8.70;99.90
19152;DHT22;9708;53.114;9.388;2023-03-21T02:06:33;8.80;99.90
19152;DHT22;9708;53.114;9.388;2023-03-21T02:09:04;8.70;99.90
19152;DHT22;9708;53.114;9.388;2023-03-21T02:11:33;8.70;99.90
19152;DHT22;9708;53.114;9.388;2023-03-21T02:14:00;8.70;99.90
19152;DHT22;9708;53.114;9.388;2023-03-21T02:16:42;8.70;99.90
19152;DHT22;9708;53.114;9.388;2023-03-21T02:22:42;8.70;99.90
19152;DHT22;9708;53.114;9.388;2023-03-21T02:25:33;8.80;99.90
19152;DHT22;9708;53.114;9.388;2023-03-21T02:28:05;8.80;99.90
19152;DHT22;9708;53.114;9.388;2023-03-21T02:30:48;8.80;99.90
19152;DHT22;9708;53.114;9.388;2023-03-21T02:33:36;8.80;99.90
19152;DHT22;9708;53.114;9.388;2023-03-21T02:36:17;8.80;99.90
19152;DHT22;9708;53.114;9.388;2023-03-21T02:38:51;8.80;99.90
19152;DHT22;9708;53.114;9.388;2023-03-21T02:41:25;8.80;99.90
19152;DHT22;9708;53.114;9.388;2023-03-21T02:43:58;8.80;99.90
19152;DHT22;9708;53.114;9.388;2023-03-21T02:46:30;8.80;99.90
19152;DHT22;9708;53.114;9.388;2023-03-21T02:49:02;8.80;99.90
19152;DHT22;9708;53.114;9.388;2023-03-21T02:51:34;8.80;99.90
19152;DHT22;9708;53.114;9.388;2023-03-21T02:54:04;8.80;99.90
19152;DHT22;9708;53.114;9.388;2023-03-21T02:56:34;8.80;99.90
19152;DHT22;9708;53.114;9.388;2023-03-21T02:59:01;8.90;99.90
19152;DHT22;9708;53.114;9.388;2023-03-21T03:01:29;8.80;99.90
19152;DHT22;9708;53.114;9.388;2023-03-21T03:03:56;8.90;99.90
19152;DHT22;9708;53.114;9.388;2023-03-21T03:06:26;8.90;99.90
19152;DHT22;9708;53.114;9.388;2023-03-21T03:09:14;8.80;99.90
19152;DHT22;9708;53.114;9.388;2023-03-21T03:11:52;8.90;99.90
19152;DHT22;9708;53.114;9.388;2023-03-21T03:14:44;8.80;99.90
19152;DHT22;9708;53.114;9.388;2023-03-21T03:17:24;8.80;99.90
19152;DHT22;9708;53.114;9.388;2023-03-21T03:20:08;8.90;99.90
19152;DHT22;9708;53.114;9.388;2023-03-21T03:22:45;8.90;99.90
19152;DHT22;9708;53.114;9.388;2023-03-21T03:25:17;8.90;99.90
19152;DHT22;9708;53.114;9.388;2023-03-21T03:27:48;8.90;99.90
19152;DHT22;9708;53.114;9.388;2023-03-21T03:30:16;8.90;99.90
19152;DHT22;9708;53.114;9.388;2023-03-21T03:32:46;8.90;99.90
19152;DHT22;9708;53.114;9.388;2023-03-21T03:35:16;8.90;99.90
19152;DHT22;9708;53.114;9.388;2023-03-21T03:37:45;8.90;99.90
19152;DHT22;9708;53.114;9.388;2023-03-21T03:40:17;8.90;99.90
19152;DHT22;9708;53.114;9.388;2023-03-21T03:42:48;9.00;99.90
19152;DHT22;9708;53.114;9.388;2023-03-21T03:45:16;9.00;99.90
19152;DHT22;9708;53.114;9.388;2023-03-21T03:47:46;9.00;99.90
19152;DHT22;9708;53.114;9.388;2023-03-21T03:50:21;8.90;99.90
19152;DHT22;9708;53.114;9.388;2023-03-21T03:52:51;8.90;99.90
19152;DHT22;9708;53.114;9.388;2023-03-21T03:55:22;8.90;99.90
19152;DHT22;9708;53.114;9.388;2023-03-21T03:57:52;8.90;99.90
19152;DHT22;9708;53.114;9.388;2023-03-21T04:00:19;8.90;99.90
19152;DHT22;9708;53.114;9.388;2023-03-21T04:02:46;9.00;99.90
19152;DHT22;9708;53.114;9.388;2023-03-21T04:05:13;8.90;99.90
19152;DHT22;9708;53.114;9.388;2023-03-21T04:07:40;8.90;99.90
19152;DHT22;9708;53.114;9.388;2023-03-21T04:10:07;8.90;99.90
19152;DHT22;9708;53.114;9.388;2023-03-21T04:12:35;8.90;99.90
19152;DHT22;9708;53.114;9.388;2023-03-21T04:15:03;8.90;99.90
19152;DHT22;9708;53.114;9.388;2023-03-21T04:17:30;8.90;99.90
19152;DHT22;9708;53.114;9.388;2023-03-21T04:19:57;8.90;99.90
19152;DHT22;9708;53.114;9.388;2023-03-21T04:22:24;8.90;99.90
19152;DHT22;9708;53.114;9.388;2023-03-21T04:24:51;8.90;99.90
19152;DHT22;9708;53.114;9.388;2023-03-21T04:27:18;8.90;99.90
19152;DHT22;9708;53.114;9.388;2023-03-21T04:29:46;8.90;99.90
19152;DHT22;9708;53.114;9.388;2023-03-21T04:32:13;9.00;99.90
19152;DHT22;9708;53.114;9.388;2023-03-21T04:34:42;8.90;99.90
19152;DHT22;9708;53.114;9.388;2023-03-21T04:37:15;9.00;99.90
19152;DHT22;9708;53.114;9.388;2023-03-21T04:39:41;9.00;99.90
19152;DHT22;9708;53.114;9.388;2023-03-21T04:42:08;9.00;99.90
19152;DHT22;9708;53.114;9.388;2023-03-21T04:44:35;9.00;99.90
19152;DHT22;9708;53.114;9.388;2023-03-21T04:47:03;9.00;99.90
19152;DHT22;9708;53.114;9.388;2023-03-21T04:49:30;9.00;99.90
19152;DHT22;9708;53.114;9.388;2023-03-21T04:51:57;9.00;99.90
19152;DHT22;9708;53.114;9.388;2023-03-21T04:54:24;9.00;99.90
19152;DHT22;9708;53.114;9.388;2023-03-21T04:56:51;8.90;99.90
19152;DHT22;9708;53.114;9.388;2023-03-21T04:59:18;9.00;99.90
19152;DHT22;9708;53.114;9.388;2023-03-21T05:01:46;8.90;99.90
19152;DHT22;9708;53.114;9.388;2023-03-21T05:04:15;8.90;99.90
19152;DHT22;9708;53.114;9.388;2023-03-21T05:06:43;9.00;99.90
19152;DHT22;9708;53.114;9.388;2023-03-21T05:09:11;9.00;99.90
19152;DHT22;9708;53.114;9.388;2023-03-21T05:11:39;9.00;99.90
19152;DHT22;9708;53.114;9.388;2023-03-21T05:14:07;9.00;99.90
19152;DHT22;9708;53.114;9.388;2023-03-21T05:16:35;9.00;99.90
19152;DHT22;9708;53.114;9.388;2023-03-21T05:19:10;9.00;99.90
19152;DHT22;9708;53.114;9.388;2023-03-21T05:21:40;9.10;99.90
19152;DHT22;9708;53.114;9.388;2023-03-21T05:24:07;9.00;99.90
19152;DHT22;9708;53.114;9.388;2023-03-21T05:26:36;9.00;99.90
19152;DHT22;9708;53.114;9.388;2023-03-21T05:29:03;9.00;99.90
19152;DHT22;9708;53.114;9.388;2023-03-21T05:31:30;9.00;99.90
19152;DHT22;9708;53.114;9.388;2023-03-21T05:33:57;9.00;99.90
19152;DHT22;9708;53.114;9.388;2023-03-21T05:36:24;9.00;99.90
19152;DHT22;9708;53.114;9.388;2023-03-21T05:38:52;9.00;99.90
19152;DHT22;9708;53.114;9.388;2023-03-21T05:41:19;9.00;99.90
19152;DHT22;9708;53.114;9.388;2023-03-21T05:43:46;9.00;99.90
19152;DHT22;9708;53.114;9.388;2023-03-21T05:46:13;8.90;99.90
19152;DHT22;9708;53.114;9.388;2023-03-21T05:48:40;9.00;99.90
19152;DHT22;9708;53.114;9.388;2023-03-21T05:51:07;8.90;99.90
19152;DHT22;9708;53.114;9.388;2023-03-21T05:53:33;9.00;99.90
19152;DHT22;9708;53.114;9.388;2023-03-21T05:56:02;9.00;99.90
19152;DHT22;9708;53.114;9.388;2023-03-21T05:58:29;9.10;99.90
19152;DHT22;9708;53.114;9.388;2023-03-21T06:00:56;9.10;99.90
19152;DHT22;9708;53.114;9.388;2023-03-21T06:03:22;9.10;99.90
19152;DHT22;9708;53.114;9.388;2023-03-21T06:05:49;9.10;99.90
19152;DHT22;9708;53.114;9.388;2023-03-21T06:08:16;9.20;99.90
19152;DHT22;9708;53.114;9.388;2023-03-21T06:10:43;9.20;99.90
19152;DHT22;9708;53.114;9.388;2023-03-21T06:13:11;9.20;99.90
19152;DHT22;9708;53.114;9.388;2023-03-21T06:15:38;9.20;99.90
19152;DHT22;9708;53.114;9.388;2023-03-21T06:18:05;9.10;99.90
19152;DHT22;9708;53.114;9.388;2023-03-21T06:20:32;9.20;99.90
19152;DHT22;9708;53.114;9.388;2023-03-21T06:22:58;9.20;99.90
19152;DHT22;9708;53.114;9.388;2023-03-21T06:25:26;9.20;99.90
19152;DHT22;9708;53.114;9.388;2023-03-21T06:27:53;9.20;99.90
19152;DHT22;9708;53.114;9.388;2023-03-21T06:30:21;9.20;99.90
19152;DHT22;9708;53.114;9.388;2023-03-21T06:32:48;9.20;99.90
19152;DHT22;9708;53.114;9.388;2023-03-21T06:35:15;9.20;99.90
19152;DHT22;9708;53.114;9.388;2023-03-21T06:37:42;9.30;99.90
19152;DHT22;9708;53.114;9.388;2023-03-21T06:40:10;9.30;99.90
19152;DHT22;9708;53.114;9.388;2023-03-21T06:42:38;9.20;99.90
19152;DHT22;9708;53.114;9.388;2023-03-21T06:45:05;9.30;99.90
19152;DHT22;9708;53.114;9.388;2023-03-21T06:47:34;9.20;99.90
19152;DHT22;9708;53.114;9.388;2023-03-21T06:50:00;9.20;99.90
19152;DHT22;9708;53.114;9.388;2023-03-21T06:52:27;9.30;99.90
19152;DHT22;9708;53.114;9.388;2023-03-21T06:54:54;9.40;99.90
19152;DHT22;9708;53.114;9.388;2023-03-21T06:57:20;9.30;99.90
19152;DHT22;9708;53.114;9.388;2023-03-21T06:59:47;9.30;99.90
19152;DHT22;9708;53.114;9.388;2023-03-21T07:02:14;9.40;99.90
19152;DHT22;9708;53.114;9.388;2023-03-21T07:04:42;9.40;99.90
19152;DHT22;9708;53.114;9.388;2023-03-21T07:07:09;9.50;99.90
19152;DHT22;9708;53.114;9.388;2023-03-21T07:09:36;9.40;99.90
19152;DHT22;9708;53.114;9.388;2023-03-21T07:12:02;9.40;99.90
19152;DHT22;9708;53.114;9.388;2023-03-21T07:14:29;9.40;99.90
19152;DHT22;9708;53.114;9.388;2023-03-21T07:16:56;9.50;99.90
19152;DHT22;9708;53.114;9.388;2023-03-21T07:19:23;9.50;99.90
19152;DHT22;9708;53.114;9.388;2023-03-21T07:21:52;9.60;99.90
19152;DHT22;9708;53.114;9.388;2023-03-21T07:24:18;9.60;99.90
19152;DHT22;9708;53.114;9.388;2023-03-21T07:26:45;9.70;99.90
19152;DHT22;9708;53.114;9.388;2023-03-21T07:29:12;9.70;99.90
19152;DHT22;9708;53.114;9.388;2023-03-21T07:31:39;9.80;99.90
19152;DHT22;9708;53.114;9.388;2023-03-21T07:34:06;9.80;99.90
19152;DHT22;9708;53.114;9.388;2023-03-21T07:36:33;9.80;99.90
19152;DHT22;9708;53.114;9.388;2023-03-21T07:39:03;9.90;99.90
19152;DHT22;9708;53.114;9.388;2023-03-21T07:41:30;10.00;99.90
19152;DHT22;9708;53.114;9.388;2023-03-21T07:43:57;9.90;99.90
19152;DHT22;9708;53.114;9.388;2023-03-21T07:46:24;9.90;99.90
19152;DHT22;9708;53.114;9.388;2023-03-21T07:48:51;10.00;99.90
19152;DHT22;9708;53.114;9.388;2023-03-21T07:51:18;10.00;99.90
19152;DHT22;9708;53.114;9.388;2023-03-21T07:53:45;10.00;99.90
19152;DHT22;9708;53.114;9.388;2023-03-21T07:56:14;10.00;99.90
19152;DHT22;9708;53.114;9.388;2023-03-21T07:58:41;10.10;99.90
19152;DHT22;9708;53.114;9.388;2023-03-21T08:01:08;10.10;99.90
19152;DHT22;9708;53.114;9.388;2023-03-21T08:03:35;10.10;99.90
19152;DHT22;9708;53.114;9.388;2023-03-21T08:06:02;10.10;99.90
19152;DHT22;9708;53.114;9.388;2023-03-21T08:08:29;10.20;99.90
19152;DHT22;9708;53.114;9.388;2023-03-21T08:10:56;10.20;99.90
19152;DHT22;9708;53.114;9.388;2023-03-21T08:13:24;10.20;99.90
19152;DHT22;9708;53.114;9.388;2023-03-21T08:15:52;10.10;99.90
19152;DHT22;9708;53.114;9.388;2023-03-21T08:18:19;10.20;99.90
19152;DHT22;9708;53.114;9.388;2023-03-21T08:20:50;10.20;99.90
19152;DHT22;9708;53.114;9.388;2023-03-21T08:23:17;10.20;99.90
19152;DHT22;9708;53.114;9.388;2023-03-21T08:25:44;10.30;99.90
19152;DHT22;9708;53.114;9.388;2023-03-21T08:28:11;10.30;99.90
19152;DHT22;9708;53.114;9.388;2023-03-21T08:30:39;10.20;99.90
19152;DHT22;9708;53.114;9.388;2023-03-21T08:33:06;10.20;99.90
19152;DHT22;9708;53.114;9.388;2023-03-21T08:35:33;10.20;99.90
19152;DHT22;9708;53.114;9.388;2023-03-21T08:38:01;10.30;99.90
19152;DHT22;9708;53.114;9.388;2023-03-21T08:40:28;10.30;99.90
19152;DHT22;9708;53.114;9.388;2023-03-21T08:42:55;10.30;99.90
19152;DHT22;9708;53.114;9.388;2023-03-21T08:45:22;10.40;99.90
19152;DHT22;9708;53.114;9.388;2023-03-21T08:47:51;10.30;99.90
19152;DHT22;9708;53.114;9.388;2023-03-21T08:50:20;10.50;99.90
19152;DHT22;9708;53.114;9.388;2023-03-21T08:52:47;10.40;99.90
19152;DHT22;9708;53.114;9.388;2023-03-21T08:55:15;10.40;99.90
19152;DHT22;9708;53.114;9.388;2023-03-21T08:57:43;10.50;99.90
19152;DHT22;9708;53.114;9.388;2023-03-21T09:00:13;10.60;99.90
19152;DHT22;9708;53.114;9.388;2023-03-21T09:02:43;10.50;99.90
19152;DHT22;9708;53.114;9.388;2023-03-21T09:05:12;10.60;99.90
19152;DHT22;9708;53.114;9.388;2023-03-21T09:07:41;10.60;99.90
19152;DHT22;9708;53.114;9.388;2023-03-21T09:10:11;10.60;99.90
19152;DHT22;9708;53.114;9.388;2023-03-21T09:12:38;10.60;99.90
19152;DHT22;9708;53.114;9.388;2023-03-21T09:15:06;10.60;99.90
19152;DHT22;9708;53.114;9.388;2023-03-21T09:17:33;10.60;99.90
19152;DHT22;9708;53.114;9.388;2023-03-21T09:20:00;10.70;99.90
19152;DHT22;9708;53.114;9.388;2023-03-21T09:22:37;10.70;99.90
19152;DHT22;9708;53.114;9.388;2023-03-21T09:25:05;10.70;99.90
19152;DHT22;9708;53.114;9.388;2023-03-21T09:27:36;10.70;99.90
19152;DHT22;9708;53.114;9.388;2023-03-21T09:30:03;10.70;99.90
19152;DHT22;9708;53.114;9.388;2023-03-21T09:32:32;10.70;99.90
19152;DHT22;9708;53.114;9.388;2023-03-21T09:34:59;10.80;99.90
19152;DHT22;9708;53.114;9.388;2023-03-21T09:37:25;10.70;99.90
19152;DHT22;9708;53.114;9.388;2023-03-21T09:39:53;10.80;99.90
19152;DHT22;9708;53.114;9.388;2023-03-21T09:42:32;10.80;99.90
19152;DHT22;9708;53.114;9.388;2023-03-21T09:45:07;10.90;99.90
19152;DHT22;9708;53.114;9.388;2023-03-21T09:47:40;10.80;99.90
19152;DHT22;9708;53.114;9.388;2023-03-21T09:50:13;10.90;99.90
19152;DHT22;9708;53.114;9.388;2023-03-21T09:52:46;10.90;99.90
19152;DHT22;9708;53.114;9.388;2023-03-21T09:55:19;10.70;99.90
19152;DHT22;9708;53.114;9.388;2023-03-21T09:57:49;10.60;99.90
19152;DHT22;9708;53.114;9.388;2023-03-21T10:00:21;10.80;99.90
19152;DHT22;9708;53.114;9.388;2023-03-21T10:02:51;10.80;99.90
19152;DHT22;9708;53.114;9.388;2023-03-21T10:05:25;10.80;99.90
19152;DHT22;9708;53.114;9.388;2023-03-21T10:07:55;10.70;99.90
19152;DHT22;9708;53.114;9.388;2023-03-21T10:10:27;10.70;99.90
19152;DHT22;9708;53.114;9.388;2023-03-21T10:12:55;10.80;99.90
19152;DHT22;9708;53.114;9.388;2023-03-21T10:15:24;10.70;99.90
19152;DHT22;9708;53.114;9.388;2023-03-21T10:17:58;10.60;99.90
19152;DHT22;9708;53.114;9.388;2023-03-21T10:20:29;10.70;99.90
19152;DHT22;9708;53.114;9.388;2023-03-21T10:22:59;10.70;99.90
19152;DHT22;9708;53.114;9.388;2023-03-21T10:25:31;10.80;99.90
19152;DHT22;9708;53.114;9.388;2023-03-21T10:27:59;10.90;99.90
19152;DHT22;9708;53.114;9.388;2023-03-21T10:30:33;10.90;99.90
19152;DHT22;9708;53.114;9.388;2023-03-21T10:33:04;11.00;99.90
19152;DHT22;9708;53.114;9.388;2023-03-21T10:35:35;11.00;99.90
19152;DHT22;9708;53.114;9.388;2023-03-21T10:38:05;10.90;99.90
19152;DHT22;9708;53.114;9.388;2023-03-21T10:40:33;10.80;99.90
19152;DHT22;9708;53.114;9.388;2023-03-21T10:43:16;10.70;99.90
19152;DHT22;9708;53.114;9.388;2023-03-21T10:45:45;10.80;99.90
19152;DHT22;9708;53.114;9.388;2023-03-21T10:48:12;10.80;99.90
19152;DHT22;9708;53.114;9.388;2023-03-21T10:50:40;11.00;99.90
19152;DHT22;9708;53.114;9.388;2023-03-21T10:53:14;11.00;99.90
19152;DHT22;9708;53.114;9.388;2023-03-21T10:55:44;11.00;99.90
19152;DHT22;9708;53.114;9.388;2023-03-21T10:58:16;10.90;99.90
19152;DHT22;9708;53.114;9.388;2023-03-21T11:00:54;11.00;99.90
19152;DHT22;9708;53.114;9.388;2023-03-21T11:03:24;11.00;99.90
19152;DHT22;9708;53.114;9.388;2023-03-21T11:05:55;11.10;99.90
19152;DHT22;9708;53.114;9.388;2023-03-21T11:08:22;11.10;99.90
19152;DHT22;9708;53.114;9.388;2023-03-21T11:10:59;11.10;99.90
19152;DHT22;9708;53.114;9.388;2023-03-21T11:13:32;11.20;99.90
19152;DHT22;9708;53.114;9.388;2023-03-21T11:16:05;11.10;99.90
19152;DHT22;9708;53.114;9.388;2023-03-21T11:18:39;11.00;99.90
19152;DHT22;9708;53.114;9.388;2023-03-21T11:21:08;11.10;99.90
19152;DHT22;9708;53.114;9.388;2023-03-21T11:23:39;11.10;99.90
19152;DHT22;9708;53.114;9.388;2023-03-21T11:26:11;10.90;99.90
19152;DHT22;9708;53.114;9.388;2023-03-21T11:28:42;11.00;99.90
19152;DHT22;9708;53.114;9.388;2023-03-21T11:31:10;11.00;99.90
19152;DHT22;9708;53.114;9.388;2023-03-21T11:33:39;11.10;99.90
19152;DHT22;9708;53.114;9.388;2023-03-21T11:36:26;11.00;99.90
19152;DHT22;9708;53.114;9.388;2023-03-21T11:38:58;10.90;99.90
19152;DHT22;9708;53.114;9.388;2023-03-21T11:41:30;11.00;99.90
19152;DHT22;9708;53.114;9.388;2023-03-21T11:43:57;11.10;99.90
19152;DHT22;9708;53.114;9.388;2023-03-21T11:46:26;11.20;99.90
19152;DHT22;9708;53.114;9.388;2023-03-21T11:48:54;11.10;99.90
19152;DHT22;9708;53.114;9.388;2023-03-21T11:51:28;11.10;99.90
19152;DHT22;9708;53.114;9.388;2023-03-21T11:54:03;11.00;99.90
19152;DHT22;9708;53.114;9.388;2023-03-21T11:56:37;11.00;99.90
19152;DHT22;9708;53.114;9.388;2023-03-21T11:59:15;11.00;99.90
19152;DHT22;9708;53.114;9.388;2023-03-21T12:02:11;11.10;99.90
19152;DHT22;9708;53.114;9.388;2023-03-21T12:04:41;11.00;99.90
19152;DHT22;9708;53.114;9.388;2023-03-21T12:07:23;11.20;99.90
19152;DHT22;9708;53.114;9.388;2023-03-21T12:09:56;11.20;99.90
19152;DHT22;9708;53.114;9.388;2023-03-21T12:12:37;11.30;99.90
19152;DHT22;9708;53.114;9.388;2023-03-21T12:15:15;11.40;99.90
19152;DHT22;9708;53.114;9.388;2023-03-21T12:17:49;11.40;99.90
19152;DHT22;9708;53.114;9.388;2023-03-21T12:20:25;11.40;99.90
19152;DHT22;9708;53.114;9.388;2023-03-21T12:23:12;11.60;99.90
19152;DHT22;9708;53.114;9.388;2023-03-21T12:25:46;11.60;99.90
19152;DHT22;9708;53.114;9.388;2023-03-21T12:28:25;11.70;99.90
19152;DHT22;9708;53.114;9.388;2023-03-21T12:31:04;11.60;99.90
19152;DHT22;9708;53.114;9.388;2023-03-21T12:33:51;11.70;99.90
19152;DHT22;9708;53.114;9.388;2023-03-21T12:36:40;11.50;99.90
19152;DHT22;9708;53.114;9.388;2023-03-21T12:39:20;11.40;99.90
19152;DHT22;9708;53.114;9.388;2023-03-21T12:42:00;11.30;99.90
19152;DHT22;9708;53.114;9.388;2023-03-21T12:44:32;11.30;99.90
19152;DHT22;9708;53.114;9.388;2023-03-21T12:47:01;11.20;99.90
19152;DHT22;9708;53.114;9.388;2023-03-21T12:49:31;11.20;99.90
19152;DHT22;9708;53.114;9.388;2023-03-21T12:52:02;11.20;99.90
19152;DHT22;9708;53.114;9.388;2023-03-21T12:54:34;11.20;99.90
19152;DHT22;9708;53.114;9.388;2023-03-21T12:57:07;11.30;99.90
19152;DHT22;9708;53.114;9.388;2023-03-21T12:59:39;11.30;99.90
19152;DHT22;9708;53.114;9.388;2023-03-21T13:02:16;11.20;99.90
19152;DHT22;9708;53.114;9.388;2023-03-21T13:04:48;11.30;99.90
19152;DHT22;9708;53.114;9.388;2023-03-21T13:07:19;11.50;99.90
19152;DHT22;9708;53.114;9.388;2023-03-21T13:09:47;11.40;99.90
19152;DHT22;9708;53.114;9.388;2023-03-21T13:12:23;11.40;99.90
19152;DHT22;9708;53.114;9.388;2023-03-21T13:15:02;11.50;99.90
19152;DHT22;9708;53.114;9.388;2023-03-21T13:17:35;11.50;99.90
19152;DHT22;9708;53.114;9.388;2023-03-21T13:20:09;11.30;99.90
19152;DHT22;9708;53.114;9.388;2023-03-21T13:22:38;11.30;99.90
19152;DHT22;9708;53.114;9.388;2023-03-21T13:25:14;11.30;99.90
19152;DHT22;9708;53.114;9.388;2023-03-21T13:27:42;11.20;99.90
19152;DHT22;9708;53.114;9.388;2023-03-21T13:30:20;11.10;99.90
19152;DHT22;9708;53.114;9.388;2023-03-21T13:32:49;11.00;99.90
19152;DHT22;9708;53.114;9.388;2023-03-21T13:35:19;11.00;99.90
19152;DHT22;9708;53.114;9.388;2023-03-21T13:37:53;11.10;99.90
19152;DHT22;9708;53.114;9.388;2023-03-21T13:40:24;11.10;99.90
19152;DHT22;9708;53.114;9.388;2023-03-21T13:42:54;11.10;99.90
19152;DHT22;9708;53.114;9.388;2023-03-21T13:45:30;11.10;99.90
19152;DHT22;9708;53.114;9.388;2023-03-21T13:47:58;11.10;99.90
19152;DHT22;9708;53.114;9.388;2023-03-21T13:50:34;11.00;99.90
19152;DHT22;9708;53.114;9.388;2023-03-21T13:53:20;11.00;99.90
19152;DHT22;9708;53.114;9.388;2023-03-21T13:58:56;11.00;99.90
19152;DHT22;9708;53.114;9.388;2023-03-21T14:01:30;11.00;99.90
19152;DHT22;9708;53.114;9.388;2023-03-21T14:04:05;10.90;99.90
19152;DHT22;9708;53.114;9.388;2023-03-21T14:06:40;10.80;99.90
19152;DHT22;9708;53.114;9.388;2023-03-21T14:09:07;10.80;99.90
19152;DHT22;9708;53.114;9.388;2023-03-21T14:11:35;10.80;99.90
19152;DHT22;9708;53.114;9.388;2023-03-21T14:14:03;10.70;99.90
19152;DHT22;9708;53.114;9.388;2023-03-21T14:16:32;10.70;99.90
19152;DHT22;9708;53.114;9.388;2023-03-21T14:19:00;10.70;99.90
19152;DHT22;9708;53.114;9.388;2023-03-21T14:21:32;10.80;99.90
19152;DHT22;9708;53.114;9.388;2023-03-21T14:24:00;10.70;99.90
19152;DHT22;9708;53.114;9.388;2023-03-21T14:26:31;10.70;99.90
19152;DHT22;9708;53.114;9.388;2023-03-21T14:28:58;10.80;99.90
19152;DHT22;9708;53.114;9.388;2023-03-21T14:31:27;10.90;99.90
19152;DHT22;9708;53.114;9.388;2023-03-21T14:33:57;10.80;99.90
19152;DHT22;9708;53.114;9.388;2023-03-21T14:36:27;10.90;99.90
19152;DHT22;9708;53.114;9.388;2023-03-21T14:38:57;10.90;99.90
19152;DHT22;9708;53.114;9.388;2023-03-21T14:41:25;10.90;99.90
19152;DHT22;9708;53.114;9.388;2023-03-21T14:44:18;10.90;99.90
19152;DHT22;9708;53.114;9.388;2023-03-21T14:46:52;11.00;99.90
19152;DHT22;9708;53.114;9.388;2023-03-21T14:49:25;11.10;99.90
19152;DHT22;9708;53.114;9.388;2023-03-21T14:51:55;11.10;99.90
19152;DHT22;9708;53.114;9.388;2023-03-21T14:54:22;11.20;99.90
19152;DHT22;9708;53.114;9.388;2023-03-21T14:56:55;11.30;99.90
19152;DHT22;9708;53.114;9.388;2023-03-21T14:59:26;11.30;99.90
19152;DHT22;9708;53.114;9.388;2023-03-21T15:01:56;11.30;99.90
19152;DHT22;9708;53.114;9.388;2023-03-21T15:04:26;11.20;99.90
19152;DHT22;9708;53.114;9.388;2023-03-21T15:06:55;11.20;99.90
19152;DHT22;9708;53.114;9.388;2023-03-21T15:09:25;11.10;99.90
19152;DHT22;9708;53.114;9.388;2023-03-21T15:11:53;11.10;99.90
19152;DHT22;9708;53.114;9.388;2023-03-21T15:14:26;11.00;99.90
19152;DHT22;9708;53.114;9.388;2023-03-21T15:16:54;11.10;99.90
19152;DHT22;9708;53.114;9.388;2023-03-21T15:19:28;11.00;99.90
19152;DHT22;9708;53.114;9.388;2023-03-21T15:22:01;11.00;99.90
19152;DHT22;9708;53.114;9.388;2023-03-21T15:24:32;11.00;99.90
19152;DHT22;9708;53.114;9.388;2023-03-21T15:27:03;11.00;99.90
19152;DHT22;9708;53.114;9.388;2023-03-21T15:29:32;11.00;99.90
19152;DHT22;9708;53.114;9.388;2023-03-21T15:32:04;11.00;99.90
19152;DHT22;9708;53.114;9.388;2023-03-21T15:34:32;11.00;99.90
19152;DHT22;9708;53.114;9.388;2023-03-21T15:37:03;10.90;99.90
19152;DHT22;9708;53.114;9.388;2023-03-21T15:39:31;10.90;99.90
19152;DHT22;9708;53.114;9.388;2023-03-21T15:42:02;10.90;99.90
19152;DHT22;9708;53.114;9.388;2023-03-21T15:44:29;10.90;99.90
19152;DHT22;9708;53.114;9.388;2023-03-21T15:46:56;11.00;99.90
19152;DHT22;9708;53.114;9.388;2023-03-21T15:49:27;10.90;99.90
19152;DHT22;9708;53.114;9.388;2023-03-21T15:52:00;10.90;99.90
19152;DHT22;9708;53.114;9.388;2023-03-21T15:54:29;11.00;99.90
19152;DHT22;9708;53.114;9.388;2023-03-21T15:56:58;11.00;99.90
19152;DHT22;9708;53.114;9.388;2023-03-21T15:59:32;11.00;99.90
19152;DHT22;9708;53.114;9.388;2023-03-21T16:01:59;11.00;99.90
19152;DHT22;9708;53.114;9.388;2023-03-21T16:04:26;11.10;99.90
19152;DHT22;9708;53.114;9.388;2023-03-21T16:07:00;11.00;99.90
19152;DHT22;9708;53.114;9.388;2023-03-21T16:09:27;11.00;99.90
19152;DHT22;9708;53.114;9.388;2023-03-21T16:12:09;11.00;99.90
19152;DHT22;9708;53.114;9.388;2023-03-21T16:14:37;11.00;99.90
19152;DHT22;9708;53.114;9.388;2023-03-21T16:17:21;11.00;99.90
19152;DHT22;9708;53.114;9.388;2023-03-21T16:19:51;11.00;99.90
19152;DHT22;9708;53.114;9.388;2023-03-21T16:22:19;11.10;99.90